Time;durP1;ratioP1;P1;durP2;ratioP2;P2;SDS_P1;SDS_P2;PMS_P1;PMS_P2;Temp;Humidity;BMP_temperature;BMP_pressure;BME280_temperature;BME280_humidity;BME280_pressure;Samples;Min_cycle;Max_cycle;Signal;HPM_P1;HPM_P2
2020/12/01 00:01:27;;;;;;;21.13;15.97;;;;;;;;;;5087209;28;20228;-63
2020/12/01 00:03:52;;;;;;;19.43;14.67;;;;;;;;;;5077290;28;20430;-64
2020/12/01 00:06:18;;;;;;;19.87;14.77;;;;;;;;;;5076975;28;20172;-64
2020/12/01 00:08:43;;;;;;;18.55;15.52;;;;;;;;;;5076960;28;20224;-64
2020/12/01 00:11:11;;;;;;;19.70;16.00;;;;;;;;;;5077447;28;20208;-64
2020/12/01 00:13:37;;;;;;;16.20;14.10;;;;;;;;;;5076902;28;20179;-65
2020/12/01 00:16:02;;;;;;;19.03;15.67;;;;;;;;;;5076968;28;20660;-64
2020/12/01 00:18:27;;;;;;;21.23;16.20;;;;;;;;;;5077247;28;20165;-64
2020/12/01 00:20:52;;;;;;;20.47;14.93;;;;;;;;;;5077096;28;20169;-64
2020/12/01 00:23:17;;;;;;;22.40;17.00;;;;;;;;;;5076878;28;20160;-65
2020/12/01 00:25:44;;;;;;;21.30;15.80;;;;;;;;;;5077447;28;20153;-63
2020/12/01 00:28:09;;;;;;;23.20;16.80;;;;;;;;;;5076707;28;20172;-65
2020/12/01 00:30:34;;;;;;;22.70;16.70;;;;;;;;;;5076532;28;20459;-65
2020/12/01 00:33:00;;;;;;;21.95;17.42;;;;;;;;;;5077163;28;20458;-62
2020/12/01 00:35:28;;;;;;;20.03;16.03;;;;;;;;;;5076774;28;20161;-63
2020/12/01 00:37:53;;;;;;;23.90;16.90;;;;;;;;;;5076586;28;20444;-63
2020/12/01 00:40:19;;;;;;;21.27;16.33;;;;;;;;;;5076994;28;20388;-62
2020/12/01 00:42:44;;;;;;;19.57;16.57;;;;;;;;;;5076846;28;20411;-63
2020/12/01 00:45:10;;;;;;;21.90;17.37;;;;;;;;;;5076684;28;20406;-63
2020/12/01 00:47:35;;;;;;;22.43;17.43;;;;;;;;;;5076849;28;20153;-63
2020/12/01 00:50:00;;;;;;;22.57;16.53;;;;;;;;;;5076428;28;20228;-63
2020/12/01 00:52:26;;;;;;;21.08;17.55;;;;;;;;;;5076588;28;20420;-63
2020/12/01 00:54:51;;;;;;;25.47;19.33;;;;;;;;;;5076685;28;20173;-63
2020/12/01 00:57:17;;;;;;;25.98;18.85;;;;;;;;;;5079391;28;20191;-63
2020/12/01 00:59:42;;;;;;;25.67;18.77;;;;;;;;;;5080203;28;20184;-63
2020/12/01 01:02:07;;;;;;;24.77;18.53;;;;;;;;;;5080522;28;20212;-63
2020/12/01 01:04:33;;;;;;;24.97;19.40;;;;;;;;;;5080205;28;20165;-61
2020/12/01 01:06:58;;;;;;;26.60;19.17;;;;;;;;;;5080130;28;20169;-65
2020/12/01 01:09:23;;;;;;;27.50;18.87;;;;;;;;;;5079982;28;20220;-63
2020/12/01 01:11:48;;;;;;;22.58;17.85;;;;;;;;;;5080063;28;20211;-63
2020/12/01 01:14:13;;;;;;;28.50;20.27;;;;;;;;;;5080227;28;20161;-62
2020/12/01 01:16:42;;;;;;;24.10;19.90;;;;;;;;;;5079872;28;20211;-64
2020/12/01 01:19:08;;;;;;;26.23;19.70;;;;;;;;;;5079976;28;20169;-64
2020/12/01 01:21:40;;;;;;;27.33;19.80;;;;;;;;;;5080155;28;20665;-64
2020/12/01 01:24:06;;;;;;;25.03;20.60;;;;;;;;;;5079641;28;21450;-64
2020/12/01 01:26:34;;;;;;;26.00;18.13;;;;;;;;;;5079630;28;20503;-63
2020/12/01 01:28:59;;;;;;;24.77;18.90;;;;;;;;;;5080094;28;20454;-64
2020/12/01 01:31:24;;;;;;;26.00;19.50;;;;;;;;;;5079546;28;20414;-63
2020/12/01 01:33:49;;;;;;;29.13;19.80;;;;;;;;;;5079518;28;20173;-63
2020/12/01 01:36:14;;;;;;;25.60;19.13;;;;;;;;;;5079823;28;20525;-63
2020/12/01 01:38:40;;;;;;;25.58;18.88;;;;;;;;;;5079105;28;20557;-63
2020/12/01 01:41:05;;;;;;;25.80;20.10;;;;;;;;;;5079358;28;20157;-63
2020/12/01 01:43:30;;;;;;;26.17;18.83;;;;;;;;;;5079868;28;20153;-62
2020/12/01 01:45:55;;;;;;;24.63;19.33;;;;;;;;;;5079331;28;20559;-64
2020/12/01 01:48:20;;;;;;;25.53;18.97;;;;;;;;;;5079690;28;20161;-62
2020/12/01 01:50:50;;;;;;;26.13;20.23;;;;;;;;;;5079773;28;20314;-65
2020/12/01 01:53:15;;;;;;;24.40;18.77;;;;;;;;;;5079313;28;20168;-65
2020/12/01 01:55:41;;;;;;;26.60;20.43;;;;;;;;;;5079160;28;20475;-66
2020/12/01 01:58:06;;;;;;;29.10;20.40;;;;;;;;;;5079375;28;20161;-67
2020/12/01 02:00:56;;;;;;;26.07;19.53;;;;;;;;;;5079171;28;20234;-65
2020/12/01 02:03:25;;;;;;;26.33;19.30;;;;;;;;;;5079065;28;20223;-65
2020/12/01 02:05:50;;;;;;;27.07;20.37;;;;;;;;;;5078850;28;20421;-63
2020/12/01 02:08:15;;;;;;;29.20;20.97;;;;;;;;;;5078956;28;20411;-66
2020/12/01 02:10:44;;;;;;;26.13;19.27;;;;;;;;;;5078537;28;20680;-66
2020/12/01 02:13:10;;;;;;;28.77;20.57;;;;;;;;;;5078884;28;20438;-67
2020/12/01 02:15:36;;;;;;;28.30;19.40;;;;;;;;;;5079173;28;20769;-67
2020/12/01 02:18:01;;;;;;;27.00;19.73;;;;;;;;;;5078603;28;20411;-63
2020/12/01 02:20:27;;;;;;;27.00;20.08;;;;;;;;;;5078673;28;20172;-65
2020/12/01 02:22:54;;;;;;;32.67;16.50;;;;;;;;;;5079020;28;20161;-56
2020/12/01 02:25:20;;;;;;;26.40;19.83;;;;;;;;;;5078695;28;20398;-57
2020/12/01 02:27:49;;;;;;;25.50;18.87;;;;;;;;;;5078544;28;20743;-57
2020/12/01 02:30:15;;;;;;;15.70;13.93;;;;;;;;;;5078794;28;20492;-58
2020/12/01 02:32:40;;;;;;;19.43;16.43;;;;;;;;;;5078459;28;20411;-63
2020/12/01 02:35:09;;;;;;;20.33;16.13;;;;;;;;;;5078448;28;20161;-62
2020/12/01 02:37:35;;;;;;;21.80;16.33;;;;;;;;;;5078422;28;20427;-63
2020/12/01 02:40:00;;;;;;;21.80;18.00;;;;;;;;;;5078641;28;20399;-62
2020/12/01 02:42:27;;;;;;;20.07;16.67;;;;;;;;;;5078261;28;20165;-63
2020/12/01 02:44:53;;;;;;;23.10;17.80;;;;;;;;;;5078512;28;20157;-64
2020/12/01 02:47:18;;;;;;;23.50;18.20;;;;;;;;;;5077954;28;20414;-63
2020/12/01 02:49:44;;;;;;;25.33;19.93;;;;;;;;;;5077790;28;20454;-63
2020/12/01 02:52:09;;;;;;;26.43;19.67;;;;;;;;;;5078444;28;20218;-63
2020/12/01 02:54:35;;;;;;;26.20;18.90;;;;;;;;;;5077952;28;20188;-62
2020/12/01 02:57:00;;;;;;;23.00;18.67;;;;;;;;;;5077764;28;20197;-63
2020/12/01 02:59:25;;;;;;;23.10;17.77;;;;;;;;;;5078313;28;20197;-63
2020/12/01 03:01:50;;;;;;;27.63;18.83;;;;;;;;;;5077834;28;20527;-64
2020/12/01 03:04:15;;;;;;;24.15;18.13;;;;;;;;;;5077698;28;20366;-64
2020/12/01 03:06:40;;;;;;;24.63;18.83;;;;;;;;;;5078119;28;20165;-63
2020/12/01 03:09:07;;;;;;;23.80;18.03;;;;;;;;;;5077422;28;20303;-63
2020/12/01 03:11:33;;;;;;;28.43;19.00;;;;;;;;;;5077609;28;20255;-64
2020/12/01 03:13:58;;;;;;;24.97;19.47;;;;;;;;;;5077860;28;20485;-63
2020/12/01 03:16:23;;;;;;;25.13;19.70;;;;;;;;;;5077373;28;20180;-64
2020/12/01 03:18:48;;;;;;;27.30;19.63;;;;;;;;;;5076931;28;20196;-64
2020/12/01 03:21:14;;;;;;;31.08;21.35;;;;;;;;;;5077687;28;20410;-61
2020/12/01 03:23:40;;;;;;;29.40;20.27;;;;;;;;;;5077286;28;20171;-64
2020/12/01 03:26:06;;;;;;;22.47;17.93;;;;;;;;;;5077245;28;20392;-64
2020/12/01 03:28:31;;;;;;;26.00;19.67;;;;;;;;;;5077726;28;20404;-63
2020/12/01 03:30:56;;;;;;;30.30;21.70;;;;;;;;;;5077207;28;20280;-64
2020/12/01 03:33:22;;;;;;;28.33;20.03;;;;;;;;;;5077063;28;20431;-63
2020/12/01 03:35:47;;;;;;;29.90;19.87;;;;;;;;;;5077637;28;20157;-64
2020/12/01 03:38:12;;;;;;;26.03;19.67;;;;;;;;;;5077214;28;20184;-63
2020/12/01 03:40:38;;;;;;;27.33;21.07;;;;;;;;;;5077246;28;20168;-63
2020/12/01 03:43:03;;;;;;;27.37;18.80;;;;;;;;;;5077450;28;20542;-64
2020/12/01 03:45:28;;;;;;;26.27;20.53;;;;;;;;;;5077217;28;20169;-63
2020/12/01 03:47:54;;;;;;;25.63;19.60;;;;;;;;;;5077048;28;20160;-63
2020/12/01 03:50:21;;;;;;;26.53;18.63;;;;;;;;;;5077346;28;20196;-63
2020/12/01 03:52:46;;;;;;;27.73;20.47;;;;;;;;;;5077241;28;20406;-62
2020/12/01 03:55:11;;;;;;;27.97;21.13;;;;;;;;;;5077118;28;20395;-62
2020/12/01 03:57:43;;;;;;;25.63;19.40;;;;;;;;;;5077378;28;20171;-63
2020/12/01 04:00:09;;;;;;;27.80;20.73;;;;;;;;;;5077007;28;20161;-63
2020/12/01 04:02:34;;;;;;;29.23;21.00;;;;;;;;;;5076895;28;20399;-63
2020/12/01 04:04:59;;;;;;;33.08;20.92;;;;;;;;;;5077330;28;20379;-63
2020/12/01 04:07:24;;;;;;;28.37;20.50;;;;;;;;;;5076911;28;20173;-63
2020/12/01 04:09:49;;;;;;;26.53;20.50;;;;;;;;;;5076926;28;20602;-63
2020/12/01 04:12:15;;;;;;;28.05;20.55;;;;;;;;;;5077235;28;20161;-63
2020/12/01 04:14:40;;;;;;;29.33;21.00;;;;;;;;;;5076912;28;20210;-63
2020/12/01 04:17:05;;;;;;;31.58;22.30;;;;;;;;;;5076744;28;20632;-63
2020/12/01 04:19:30;;;;;;;30.90;21.27;;;;;;;;;;5077084;28;20169;-62
2020/12/01 04:21:55;;;;;;;31.95;22.15;;;;;;;;;;5076774;28;20184;-63
2020/12/01 04:24:20;;;;;;;25.10;20.10;;;;;;;;;;5076562;28;20168;-62
2020/12/01 04:26:46;;;;;;;26.15;19.80;;;;;;;;;;5077009;28;20753;-63
2020/12/01 04:29:11;;;;;;;27.13;20.27;;;;;;;;;;5076550;28;20196;-64
2020/12/01 04:31:36;;;;;;;28.70;20.77;;;;;;;;;;5080406;28;20554;-64
2020/12/01 04:34:01;;;;;;;29.50;21.20;;;;;;;;;;5080923;28;20165;-63
2020/12/01 04:36:26;;;;;;;34.22;22.98;;;;;;;;;;5080493;28;20165;-63
2020/12/01 04:38:51;;;;;;;31.97;21.90;;;;;;;;;;5080545;28;20561;-63
2020/12/01 04:41:17;;;;;;;33.63;22.65;;;;;;;;;;5080835;28;20165;-63
2020/12/01 04:43:46;;;;;;;29.90;20.67;;;;;;;;;;5080380;28;20192;-63
2020/12/01 04:46:13;;;;;;;30.27;20.80;;;;;;;;;;5080171;28;20185;-62
2020/12/01 04:48:39;;;;;;;28.97;20.70;;;;;;;;;;5080594;28;20387;-62
2020/12/01 04:51:15;;;;;;;28.20;22.33;;;;;;;;;;5080228;28;20426;-63
2020/12/01 04:53:49;;;;;;;30.30;19.93;;;;;;;;;;5080128;28;20180;-62
2020/12/01 04:56:27;;;;;;;27.53;20.77;;;;;;;;;;5080021;28;20414;-63
2020/12/01 04:59:10;;;;;;;28.07;20.50;;;;;;;;;;5080157;28;20634;-63
2020/12/01 05:01:58;;;;;;;30.60;20.83;;;;;;;;;;5080133;28;20450;-63
2020/12/01 05:04:30;;;;;;;28.43;19.73;;;;;;;;;;5079204;28;20415;-62
2020/12/01 05:07:14;;;;;;;29.00;20.90;;;;;;;;;;5080061;28;20486;-63
2020/12/01 05:09:41;;;;;;;28.37;20.80;;;;;;;;;;5080055;28;20532;-63
2020/12/01 05:12:13;;;;;;;28.10;22.00;;;;;;;;;;5080045;28;20453;-64
2020/12/01 05:14:44;;;;;;;29.63;20.40;;;;;;;;;;5080040;28;20707;-63
2020/12/01 05:17:21;;;;;;;27.63;18.80;;;;;;;;;;5079984;28;20417;-62
2020/12/01 05:19:48;;;;;;;30.00;20.83;;;;;;;;;;5079973;28;20419;-63
2020/12/01 05:22:15;;;;;;;25.30;19.33;;;;;;;;;;5079907;28;20374;-62
2020/12/01 05:24:42;;;;;;;33.00;21.73;;;;;;;;;;5079959;28;20411;-63
2020/12/01 05:27:17;;;;;;;30.17;20.40;;;;;;;;;;5080359;28;20423;-64
2020/12/01 05:29:42;;;;;;;30.23;20.10;;;;;;;;;;5080027;28;20773;-62
2020/12/01 05:32:08;;;;;;;24.60;19.43;;;;;;;;;;5079793;28;20498;-62
2020/12/01 05:34:33;;;;;;;27.43;19.53;;;;;;;;;;5079722;28;20248;-63
2020/12/01 05:37:03;;;;;;;29.40;19.77;;;;;;;;;;5079821;28;20169;-64
2020/12/01 05:39:32;;;;;;;29.13;20.77;;;;;;;;;;5080066;28;20523;-63
2020/12/01 05:42:03;;;;;;;29.20;20.80;;;;;;;;;;5078933;28;20820;-63
2020/12/01 05:44:29;;;;;;;28.97;19.87;;;;;;;;;;5079408;28;20423;-62
2020/12/01 05:47:03;;;;;;;29.53;20.70;;;;;;;;;;5079448;28;20819;-63
2020/12/01 05:49:30;;;;;;;29.13;20.97;;;;;;;;;;5079463;28;20531;-63
2020/12/01 05:52:04;;;;;;;27.07;20.23;;;;;;;;;;5079330;28;20797;-63
2020/12/01 05:54:32;;;;;;;29.37;20.07;;;;;;;;;;5079386;28;20399;-63
2020/12/01 05:56:57;;;;;;;28.03;19.53;;;;;;;;;;5079144;28;20407;-63
2020/12/01 05:59:23;;;;;;;28.23;20.17;;;;;;;;;;5079203;28;20486;-63
2020/12/01 06:01:50;;;;;;;28.77;19.40;;;;;;;;;;5079544;28;20169;-62
2020/12/01 06:04:25;;;;;;;29.90;19.27;;;;;;;;;;5079247;28;20400;-64
2020/12/01 06:07:05;;;;;;;29.50;21.23;;;;;;;;;;5079075;28;20410;-63
2020/12/01 06:09:40;;;;;;;29.00;19.87;;;;;;;;;;5078725;28;20739;-63
2020/12/01 06:12:12;;;;;;;28.03;19.83;;;;;;;;;;5078941;28;20395;-63
2020/12/01 06:14:42;;;;;;;25.63;20.07;;;;;;;;;;5078986;28;20408;-63
2020/12/01 06:17:13;;;;;;;28.80;19.20;;;;;;;;;;5078811;28;20415;-64
2020/12/01 06:19:41;;;;;;;26.77;19.10;;;;;;;;;;5078773;28;20490;-64
2020/12/01 06:22:10;;;;;;;31.00;19.53;;;;;;;;;;5078719;28;20414;-63
2020/12/01 06:24:46;;;;;;;27.13;19.40;;;;;;;;;;5078764;28;20789;-62
2020/12/01 06:27:18;;;;;;;28.60;19.90;;;;;;;;;;5078673;28;20407;-63
2020/12/01 06:29:43;;;;;;;31.27;18.90;;;;;;;;;;5078632;28;20873;-63
2020/12/01 06:32:27;;;;;;;27.13;19.55;;;;;;;;;;5078567;28;20402;-64
2020/12/01 06:34:57;;;;;;;28.47;19.37;;;;;;;;;;5078554;28;20244;-63
2020/12/01 06:37:39;;;;;;;29.93;19.50;;;;;;;;;;5078535;28;20427;-63
2020/12/01 06:40:26;;;;;;;25.37;16.87;;;;;;;;;;5078670;28;20430;-64
2020/12/01 06:42:53;;;;;;;29.20;20.13;;;;;;;;;;5078320;28;20529;-63
2020/12/01 06:45:24;;;;;;;29.00;20.70;;;;;;;;;;5078397;28;20461;-63
2020/12/01 06:47:52;;;;;;;26.57;18.80;;;;;;;;;;5078141;28;20819;-64
2020/12/01 06:50:18;;;;;;;23.47;17.50;;;;;;;;;;5078414;28;20743;-63
2020/12/01 06:52:53;;;;;;;34.67;21.57;;;;;;;;;;5077864;28;20453;-64
2020/12/01 06:55:38;;;;;;;29.83;19.70;;;;;;;;;;5077444;28;20697;-63
2020/12/01 06:58:08;;;;;;;27.80;19.50;;;;;;;;;;5078068;28;20498;-63
2020/12/01 07:00:33;;;;;;;27.10;18.67;;;;;;;;;;5077971;28;20431;-63
2020/12/01 07:03:06;;;;;;;27.57;19.53;;;;;;;;;;5077980;28;20442;-63
2020/12/01 07:05:32;;;;;;;26.83;18.30;;;;;;;;;;5077135;28;20213;-63
2020/12/01 07:07:57;;;;;;;26.10;18.00;;;;;;;;;;5077864;28;20382;-64
2020/12/01 07:10:27;;;;;;;25.67;19.90;;;;;;;;;;5077425;28;20220;-63
2020/12/01 07:13:06;;;;;;;27.50;17.97;;;;;;;;;;5076962;28;20176;-63
2020/12/01 07:15:40;;;;;;;24.83;17.37;;;;;;;;;;5077751;28;20399;-63
2020/12/01 07:18:11;;;;;;;31.20;20.87;;;;;;;;;;5077576;28;20444;-63
2020/12/01 07:20:55;;;;;;;31.27;21.23;;;;;;;;;;5067768;28;20760;-64
2020/12/01 07:23:24;;;;;;;32.83;22.43;;;;;;;;;;5059972;28;20676;-63
2020/12/01 07:25:56;;;;;;;34.30;22.27;;;;;;;;;;5057697;28;20419;-63
2020/12/01 07:28:28;;;;;;;39.27;24.53;;;;;;;;;;5057819;28;20420;-63
2020/12/01 07:30:58;;;;;;;32.33;21.77;;;;;;;;;;5057101;28;20474;-63
2020/12/01 07:33:33;;;;;;;36.10;22.97;;;;;;;;;;5057236;28;20475;-63
2020/12/01 07:36:11;;;;;;;38.50;23.90;;;;;;;;;;5057369;28;20454;-64
2020/12/01 07:38:41;;;;;;;36.27;22.90;;;;;;;;;;5057636;28;20436;-64
2020/12/01 07:41:35;;;;;;;36.43;23.63;;;;;;;;;;5057229;28;20660;-63
2020/12/01 07:44:03;;;;;;;30.20;21.80;;;;;;;;;;5056800;28;20432;-63
2020/12/01 07:46:29;;;;;;;30.10;21.37;;;;;;;;;;5057146;28;20408;-63
2020/12/01 07:49:01;;;;;;;31.47;22.57;;;;;;;;;;5057261;28;20614;-63
2020/12/01 07:51:29;;;;;;;34.20;23.57;;;;;;;;;;5057177;28;20508;-63
2020/12/01 07:53:56;;;;;;;36.50;22.97;;;;;;;;;;5057099;28;20439;-62
2020/12/01 07:56:22;;;;;;;30.77;21.43;;;;;;;;;;5057337;28;20519;-63
2020/12/01 07:59:06;;;;;;;34.60;22.17;;;;;;;;;;5056823;28;20404;-63
2020/12/01 08:01:32;;;;;;;30.70;22.30;;;;;;;;;;5057151;28;20678;-63
2020/12/01 08:04:04;;;;;;;31.90;22.50;;;;;;;;;;5057083;28;20401;-63
2020/12/01 08:06:29;;;;;;;38.77;23.53;;;;;;;;;;5056781;28;20161;-63
2020/12/01 08:08:54;;;;;;;32.33;21.73;;;;;;;;;;5056792;28;20510;-63
2020/12/01 08:11:21;;;;;;;36.33;24.43;;;;;;;;;;5056521;28;20413;-63
2020/12/01 08:13:50;;;;;;;38.90;24.70;;;;;;;;;;5056949;28;20307;-63
2020/12/01 08:16:17;;;;;;;32.60;22.37;;;;;;;;;;5056694;28;20408;-63
2020/12/01 08:18:43;;;;;;;32.00;21.97;;;;;;;;;;5056953;28;20400;-64
2020/12/01 08:21:08;;;;;;;32.03;22.97;;;;;;;;;;5067728;28;20726;-64
2020/12/01 08:23:35;;;;;;;38.27;23.10;;;;;;;;;;5056843;28;20400;-65
2020/12/01 08:26:12;;;;;;;36.77;24.30;;;;;;;;;;5064507;28;20434;-66
2020/12/01 08:28:39;;;;;;;32.70;23.63;;;;;;;;;;5064765;28;20489;-64
2020/12/01 08:31:23;;;;;;;34.33;22.10;;;;;;;;;;5067307;28;20442;-64
2020/12/01 08:33:58;;;;;;;35.70;23.70;;;;;;;;;;5067353;28;20653;-62
2020/12/01 08:36:35;;;;;;;33.30;22.33;;;;;;;;;;5067187;28;20414;-64
2020/12/01 08:39:07;;;;;;;33.00;22.40;;;;;;;;;;5066564;28;20407;-63
2020/12/01 08:41:41;;;;;;;36.70;18.80;;;;;;;;;;5065424;28;20408;-61
2020/12/01 08:44:15;;;;;;;31.30;22.50;;;;;;;;;;5064926;28;20751;-62
2020/12/01 08:46:41;;;;;;;33.20;22.70;;;;;;;;;;5065611;28;20415;-65
2020/12/01 08:49:23;;;;;;;31.67;22.50;;;;;;;;;;5073213;28;20422;-63
2020/12/01 08:51:50;;;;;;;34.50;23.40;;;;;;;;;;5076433;28;21458;-63
2020/12/01 08:54:24;;;;;;;34.93;24.03;;;;;;;;;;5075978;28;20391;-64
2020/12/01 08:56:53;;;;;;;33.07;23.43;;;;;;;;;;5076271;28;20402;-63
2020/12/01 08:59:22;;;;;;;30.97;22.77;;;;;;;;;;5076579;28;20708;-63
2020/12/01 09:01:47;;;;;;;34.67;23.47;;;;;;;;;;5076510;28;20486;-62
2020/12/01 09:04:20;;;;;;;34.50;23.93;;;;;;;;;;5076767;28;20403;-64
2020/12/01 09:06:45;;;;;;;34.00;24.80;;;;;;;;;;5076223;28;20199;-62
2020/12/01 09:09:23;;;;;;;34.90;22.97;;;;;;;;;;5075898;28;20475;-63
2020/12/01 09:12:36;;;;;;;33.53;21.90;;;;;;;;;;5076354;28;20175;-62
2020/12/01 09:23:22;;;;;;;29.93;20.67;;;;;;;;;;5078925;28;20426;-63
2020/12/01 09:25:48;;;;;;;32.43;21.57;;;;;;;;;;5080049;28;20396;-62
2020/12/01 09:28:15;;;;;;;29.97;21.37;;;;;;;;;;5079673;28;20441;-63
2020/12/01 09:30:41;;;;;;;30.70;21.13;;;;;;;;;;5079662;28;20253;-62
2020/12/01 09:33:09;;;;;;;29.70;20.30;;;;;;;;;;5080089;28;20407;-64
2020/12/01 09:35:34;;;;;;;31.37;23.23;;;;;;;;;;5064411;28;20188;-63
2020/12/01 09:37:59;;;;;;;30.30;18.37;;;;;;;;;;5059566;28;20412;-62
2020/12/01 09:40:26;;;;;;;29.37;21.20;;;;;;;;;;5059767;28;20182;-63
2020/12/01 09:42:54;;;;;;;36.00;22.27;;;;;;;;;;5059636;28;20170;-62
2020/12/01 09:48:06;;;;;;;33.40;23.17;;;;;;;;;;5079838;28;20399;-62
2020/12/01 09:50:34;;;;;;;37.77;23.93;;;;;;;;;;5068482;28;20641;-63
2020/12/01 09:53:46;;;;;;;35.77;23.63;;;;;;;;;;5067393;28;20419;-62
2020/12/01 09:58:54;;;;;;;35.80;24.30;;;;;;;;;;5068604;28;20494;-63
2020/12/01 10:09:45;;;;;;;32.10;21.50;;;;;;;;;;5068318;28;20483;-63
2020/12/01 10:25:41;;;;;;;36.50;22.97;;;;;;;;;;5069250;28;20817;-63
2020/12/01 10:36:06;;;;;;;32.23;21.63;;;;;;;;;;5068330;28;20446;-64
2020/12/01 10:38:31;;;;;;;30.87;21.00;;;;;;;;;;5056551;28;20411;-62
2020/12/01 10:40:56;;;;;;;31.53;22.50;;;;;;;;;;5076633;28;20175;-63
2020/12/01 10:43:21;;;;;;;32.93;22.37;;;;;;;;;;5077817;28;20172;-62
2020/12/01 10:45:47;;;;;;;36.17;24.70;;;;;;;;;;5078018;28;20176;-63
2020/12/01 10:48:12;;;;;;;34.50;24.40;;;;;;;;;;5078042;28;20396;-63
2020/12/01 10:50:37;;;;;;;34.67;25.03;;;;;;;;;;5078323;28;20188;-63
2020/12/01 10:53:02;;;;;;;36.07;24.83;;;;;;;;;;5076687;28;20196;-64
2020/12/01 10:55:29;;;;;;;34.58;24.70;;;;;;;;;;5077321;28;20429;-63
2020/12/01 10:57:54;;;;;;;33.87;24.47;;;;;;;;;;5077113;28;20171;-64
2020/12/01 11:00:21;;;;;;;35.27;23.47;;;;;;;;;;5077561;28;20793;-63
2020/12/01 11:02:46;;;;;;;31.60;21.93;;;;;;;;;;5077363;28;20165;-64
2020/12/01 11:05:14;;;;;;;36.90;24.13;;;;;;;;;;5077478;28;20708;-64
2020/12/01 11:07:39;;;;;;;30.90;23.10;;;;;;;;;;5077406;28;20200;-63
2020/12/01 11:10:04;;;;;;;35.40;24.77;;;;;;;;;;5076890;28;20791;-63
2020/12/01 11:12:30;;;;;;;37.90;24.10;;;;;;;;;;5077535;28;20177;-64
2020/12/01 11:14:55;;;;;;;33.67;22.30;;;;;;;;;;5077207;28;20200;-63
2020/12/01 11:17:20;;;;;;;28.83;20.40;;;;;;;;;;5077538;28;20489;-64
2020/12/01 11:19:45;;;;;;;32.67;22.88;;;;;;;;;;5077736;28;20168;-62
2020/12/01 11:22:13;;;;;;;28.53;19.53;;;;;;;;;;5077176;28;20169;-63
2020/12/01 11:24:38;;;;;;;31.80;20.53;;;;;;;;;;5077014;28;20164;-63
2020/12/01 11:27:03;;;;;;;28.00;19.30;;;;;;;;;;5077368;28;20789;-63
2020/12/01 11:29:28;;;;;;;27.60;20.70;;;;;;;;;;5076975;28;20200;-63
2020/12/01 11:31:53;;;;;;;32.67;20.27;;;;;;;;;;5077234;28;20176;-63
2020/12/01 11:34:18;;;;;;;29.60;20.10;;;;;;;;;;5077386;28;20173;-63
2020/12/01 11:36:44;;;;;;;28.80;20.50;;;;;;;;;;5076844;28;20198;-64
2020/12/01 11:39:10;;;;;;;32.20;21.90;;;;;;;;;;5076401;28;20563;-64
2020/12/01 11:41:36;;;;;;;30.80;21.07;;;;;;;;;;5077178;28;20223;-64
2020/12/01 11:44:01;;;;;;;32.07;22.37;;;;;;;;;;5076845;28;20816;-64
2020/12/01 11:46:27;;;;;;;34.00;21.20;;;;;;;;;;5076911;28;20165;-65
2020/12/01 11:48:52;;;;;;;31.77;21.77;;;;;;;;;;5077219;28;20157;-65
2020/12/01 11:51:17;;;;;;;32.30;21.53;;;;;;;;;;5076760;28;20197;-64
2020/12/01 11:53:43;;;;;;;30.27;21.20;;;;;;;;;;5076772;28;20169;-64
2020/12/01 11:56:09;;;;;;;31.83;20.97;;;;;;;;;;5077156;28;20180;-64
2020/12/01 11:58:34;;;;;;;30.30;21.23;;;;;;;;;;5075940;28;20165;-62
2020/12/01 12:00:59;;;;;;;31.90;20.67;;;;;;;;;;5060282;28;20173;-62
2020/12/01 12:03:24;;;;;;;33.93;22.67;;;;;;;;;;5068009;28;20197;-63
2020/12/01 12:05:49;;;;;;;35.50;22.10;;;;;;;;;;5066357;28;20617;-63
2020/12/01 12:08:15;;;;;;;30.20;19.95;;;;;;;;;;5067286;28;20255;-68
2020/12/01 12:10:40;;;;;;;30.60;20.40;;;;;;;;;;5064463;28;20320;-63
2020/12/01 12:13:05;;;;;;;29.90;19.97;;;;;;;;;;5063937;28;20288;-64
2020/12/01 12:15:32;;;;;;;24.48;17.05;;;;;;;;;;5066857;28;20178;-63
2020/12/01 12:17:58;;;;;;;29.50;18.43;;;;;;;;;;5064349;28;20228;-64
2020/12/01 12:20:23;;;;;;;25.60;18.23;;;;;;;;;;5064716;28;20404;-64
2020/12/01 12:22:48;;;;;;;30.23;18.90;;;;;;;;;;5065297;28;20395;-63
2020/12/01 12:25:14;;;;;;;27.23;19.33;;;;;;;;;;5066970;28;20169;-63
2020/12/01 12:27:39;;;;;;;29.07;19.27;;;;;;;;;;5063861;28;20428;-64
2020/12/01 12:30:05;;;;;;;23.60;18.37;;;;;;;;;;5065477;28;20597;-64
2020/12/01 12:32:30;;;;;;;29.73;19.40;;;;;;;;;;5062930;28;20166;-63
2020/12/01 12:34:55;;;;;;;25.13;18.33;;;;;;;;;;5054064;28;20303;-63
2020/12/01 12:37:20;;;;;;;25.87;18.40;;;;;;;;;;5072056;28;20207;-65
2020/12/01 12:39:45;;;;;;;25.10;17.47;;;;;;;;;;5075290;28;20492;-63
2020/12/01 12:42:11;;;;;;;24.05;17.20;;;;;;;;;;5075648;28;20164;-64
2020/12/01 12:44:36;;;;;;;22.42;17.48;;;;;;;;;;5075690;28;20187;-63
2020/12/01 12:47:01;;;;;;;27.05;19.02;;;;;;;;;;5075591;28;20207;-63
2020/12/01 12:49:26;;;;;;;26.57;19.83;;;;;;;;;;5074997;28;20205;-64
2020/12/01 12:51:51;;;;;;;26.77;18.33;;;;;;;;;;5076438;28;20161;-64
2020/12/01 12:54:17;;;;;;;26.17;18.00;;;;;;;;;;5079279;28;20172;-63
2020/12/01 12:56:42;;;;;;;24.20;17.00;;;;;;;;;;5079356;28;20169;-63
2020/12/01 12:59:07;;;;;;;27.30;18.10;;;;;;;;;;5079154;28;20173;-63
2020/12/01 13:01:32;;;;;;;27.00;16.93;;;;;;;;;;5079500;28;20169;-63
2020/12/01 13:03:57;;;;;;;26.70;18.43;;;;;;;;;;5078740;28;20482;-64
2020/12/01 13:06:23;;;;;;;26.83;19.20;;;;;;;;;;5078171;28;20157;-63
2020/12/01 13:08:48;;;;;;;27.42;16.17;;;;;;;;;;5079072;28;20213;-64
2020/12/01 13:11:13;;;;;;;28.10;17.83;;;;;;;;;;5076536;28;20193;-64
2020/12/01 13:13:39;;;;;;;27.73;19.70;;;;;;;;;;5067698;28;20196;-64
2020/12/01 13:16:04;;;;;;;30.17;19.93;;;;;;;;;;5058627;28;20216;-63
2020/12/01 13:18:29;;;;;;;30.77;18.90;;;;;;;;;;5061682;28;20165;-63
2020/12/01 13:20:54;;;;;;;24.57;17.83;;;;;;;;;;5068142;28;20281;-64
2020/12/01 13:23:19;;;;;;;29.00;18.73;;;;;;;;;;5067955;28;20192;-63
2020/12/01 13:25:45;;;;;;;30.77;19.17;;;;;;;;;;5069119;28;20600;-63
2020/12/01 13:28:10;;;;;;;30.53;19.30;;;;;;;;;;5068661;28;20173;-64
2020/12/01 13:30:35;;;;;;;29.13;18.17;;;;;;;;;;5058509;28;20208;-63
2020/12/01 13:33:00;;;;;;;30.67;20.17;;;;;;;;;;5058589;28;20165;-62
2020/12/01 13:35:25;;;;;;;25.53;18.53;;;;;;;;;;5064831;28;20169;-63
2020/12/01 13:37:51;;;;;;;26.97;18.40;;;;;;;;;;5078404;28;20228;-63
2020/12/01 13:40:17;;;;;;;27.13;19.40;;;;;;;;;;5078005;28;20403;-63
2020/12/01 13:42:43;;;;;;;27.73;19.40;;;;;;;;;;5078168;28;20510;-65
2020/12/01 13:45:08;;;;;;;26.70;18.40;;;;;;;;;;5075795;28;20428;-64
2020/12/01 13:47:34;;;;;;;27.47;17.67;;;;;;;;;;5063195;28;20226;-65
2020/12/01 13:50:00;;;;;;;26.30;17.57;;;;;;;;;;5078540;28;20443;-64
2020/12/01 13:52:26;;;;;;;28.80;18.40;;;;;;;;;;5078561;28;20516;-64
2020/12/01 13:54:51;;;;;;;26.33;18.10;;;;;;;;;;5077864;28;20161;-64
2020/12/01 13:57:16;;;;;;;27.10;18.53;;;;;;;;;;5078447;28;20370;-64
2020/12/01 13:59:41;;;;;;;25.80;18.27;;;;;;;;;;5077347;28;20223;-63
2020/12/01 14:02:06;;;;;;;26.60;16.70;;;;;;;;;;5077964;28;20580;-63
2020/12/01 14:04:31;;;;;;;26.77;19.05;;;;;;;;;;5078252;28;20161;-63
2020/12/01 14:06:56;;;;;;;26.15;18.45;;;;;;;;;;5077805;28;20199;-63
2020/12/01 14:09:23;;;;;;;25.67;18.80;;;;;;;;;;5075596;28;20497;-65
2020/12/01 14:11:49;;;;;;;30.20;17.87;;;;;;;;;;5078251;28;20236;-64
2020/12/01 14:14:14;;;;;;;26.87;19.83;;;;;;;;;;5078020;28;20449;-64
2020/12/01 14:16:39;;;;;;;27.57;17.27;;;;;;;;;;5077774;28;20403;-64
2020/12/01 14:19:04;;;;;;;28.17;18.57;;;;;;;;;;5077807;28;20153;-64
2020/12/01 14:21:29;;;;;;;24.00;15.25;;;;;;;;;;5077165;28;20157;-65
2020/12/01 14:23:55;;;;;;;23.10;16.53;;;;;;;;;;5077746;28;20510;-64
2020/12/01 14:26:20;;;;;;;26.47;17.90;;;;;;;;;;5077979;28;20171;-65
2020/12/01 14:28:45;;;;;;;27.13;16.92;;;;;;;;;;5077463;28;20180;-64
2020/12/01 14:31:10;;;;;;;25.23;16.25;;;;;;;;;;5077325;28;20235;-64
2020/12/01 14:33:38;;;;;;;25.30;17.80;;;;;;;;;;5077293;28;20180;-63
2020/12/01 14:36:07;;;;;;;28.63;18.07;;;;;;;;;;5077053;28;20196;-65
2020/12/01 14:38:32;;;;;;;27.77;18.10;;;;;;;;;;5076883;28;20517;-64
2020/12/01 14:40:57;;;;;;;30.30;18.07;;;;;;;;;;5077299;28;20430;-64
2020/12/01 14:43:23;;;;;;;29.97;19.53;;;;;;;;;;5077224;28;20523;-64
2020/12/01 14:45:50;;;;;;;28.47;18.67;;;;;;;;;;5076077;28;20157;-64
2020/12/01 14:48:22;;;;;;;31.90;20.00;;;;;;;;;;5076384;28;20211;-63
2020/12/01 14:50:53;;;;;;;29.33;18.33;;;;;;;;;;5076927;28;20454;-64
2020/12/01 14:53:24;;;;;;;31.10;19.53;;;;;;;;;;5076824;28;20435;-63
2020/12/01 14:55:55;;;;;;;34.00;20.70;;;;;;;;;;5076756;28;20402;-64
2020/12/01 14:58:29;;;;;;;31.33;20.03;;;;;;;;;;5076939;28;20411;-62
2020/12/01 15:01:12;;;;;;;29.67;20.33;;;;;;;;;;5076297;28;20399;-63
2020/12/01 15:03:50;;;;;;;33.03;20.27;;;;;;;;;;5076914;28;20391;-63